LiveATC.Net - Listen to live air traffic control over the Internet!

ICAO: KARB  IATA: ARB   Airport: Ann Arbor Municipal Airport
City: Ann Arbor   State/Province: Michigan
Country: United States   Continent: North America
KARB METAR Weather: KARB 220653Z AUTO 29003KT 10SM OVC044 05/01 A3001 RMK AO2 SLP166 T00500011
KARB Flight Activity (FlightAware)
KARB Airport Info   (AirNav) (iFlightPlanner)
KARB VFR Sectional Chart   (iFlightPlanner) 
KARB IFR Low Chart   (iFlightPlanner) 
KARB Gnd/Twr
Feed Status: UP   Listeners: 0
Listen right in your browser - requires Flash (in browser, requires Flash)
Click here to listen with your own player (launches your MP3 player)
KARB Gnd/Twr Audio Archives
Ann Arbor Ground121.600
Ann Arbor Tower120.300

Feed sponsored by: iFlightPlanner and


Unauthorized use prohibited. See Terms of Service

Find LiveATC Audio Streams

Airport/ARTCC Code

(e.g., 124.400, 128.75)
Site-wide search

Browse LiveATC Feeds
LiveATC Coverage Map
Top 50 LiveATC Feeds
Bad Weather Areas

Offer a LiveATC Feed
Press Inquiries

LiveATC on iPhone
LiveATC on Android

Windows Phone
Windows 8/10

LiveATC Mobile
(Mobile browser)

ATC Audio Archives
Interesting Recordings

LiveATC Forums

Home Page
Make a Donation
LiveATC Store

Terms of Use
Privacy Policy

Canadian Air Freqs


FAA Airport Status
Nat'l Airspace Status
Arrival Demand Charts

Server Software By: